Laurel — ZCOV6 — position and weather

sailwx.info

Track history (hours):
 
Tides and Currents Weather Stations Pressure Air Temp Water Temp Dewpoint Dewpoint Depression Visibility Wind Speed Wind Dir Waves Ship Positions

Laurel

Last reported at 2014-Jul-23 03:31 UTC. Time now 2014-Jul-23 03:48 UTC.
Position N 43°34' E 007°07'.

Length 73 m; draft 3.7 m.

Type: Pleasure craft. MMSI: 319914000.

Date/timePositionNaut miles runAvg speedWind from/ knotsBaromVisibWave heightAir tempDewpointWater temp
2014-Jul-23 03:31N 43°34' E 007°07'0 0.0
2014-Jul-23 02:31N 43°34' E 007°07'0 0.0
2014-Jul-23 01:31N 43°34' E 007°07'0 0.0
2014-Jul-23 00:31N 43°34' E 007°07'0 0.0
2014-Jul-22 23:31N 43°34' E 007°07'0 0.0
2014-Jul-22 22:31N 43°34' E 007°07'0 0.0
2014-Jul-22 21:25N 43°34' E 007°07'0 0.0
2014-Jul-22 20:31N 43°34' E 007°07'0 0.0
2014-Jul-22 19:25N 43°34' E 007°07'0 0.0
2014-Jul-22 18:31N 43°34' E 007°07'0 0.0
2014-Jul-22 17:31N 43°34' E 007°07'0 0.0
2014-Jul-22 16:31N 43°34' E 007°07'0 0.0
2014-Jul-22 15:31N 43°34' E 007°07'0 0.0
2014-Jul-22 14:31N 43°34' E 007°07'0 0.0
2014-Jul-22 13:31N 43°34' E 007°07'0 0.0
2014-Jul-22 12:31N 43°34' E 007°07'0 0.0
2014-Jul-22 11:31N 43°34' E 007°07'0 0.0
2014-Jul-22 10:25N 43°34' E 007°07'0 0.0
2014-Jul-22 09:31N 43°34' E 007°07'0 0.0
2014-Jul-22 08:31N 43°34' E 007°07'4 4.1
2014-Jul-22 07:33N 43°32' E 007°01'0 0.0
2014-Jul-22 05:25N 43°32' E 007°01'0 0.0
2014-Jul-21 22:22N 43°32' E 007°01'0 0.0
2014-Jul-21 21:31N 43°32' E 007°01'0 0.0
2014-Jul-21 20:31N 43°32' E 007°01'0 0.0
2014-Jul-21 20:13N 43°32' E 007°01'0 0.0
2014-Jul-21 19:31N 43°32' E 007°01'0 0.0
2014-Jul-21 18:19N 43°32' E 007°01'0 0.0
2014-Jul-21 17:31N 43°32' E 007°01'0 0.0
2014-Jul-21 15:31N 43°32' E 007°01'0 0.0
2014-Jul-21 14:31N 43°32' E 007°01'0 0.0
2014-Jul-21 13:31N 43°32' E 007°01'0 0.0
2014-Jul-21 12:31N 43°32' E 007°01'0 0.0
2014-Jul-21 11:07N 43°32' E 007°01'0 0.0
2014-Jul-21 10:19N 43°32' E 007°01'0 0.0
2014-Jul-21 09:19N 43°32' E 007°01'0 0.0
2014-Jul-21 04:07N 43°32' E 007°02'0 0.0
2014-Jul-21 02:13N 43°32' E 007°01'0 0.0
2014-Jul-20 22:31N 43°32' E 007°01'0 0.0
2014-Jul-20 21:25N 43°32' E 007°01'0 0.0
2014-Jul-20 20:25N 43°32' E 007°01'0 0.0
2014-Jul-20 19:31N 43°32' E 007°01'0 0.0
2014-Jul-20 18:25N 43°32' E 007°01'0 0.0
2014-Jul-20 17:13N 43°32' E 007°01'0 0.0
2014-Jul-20 15:31N 43°32' E 007°01'0 0.0
2014-Jul-20 14:19N 43°32' E 007°01'0 0.0
2014-Jul-20 12:07N 43°32' E 007°01'0 0.0
2014-Jul-20 09:28N 43°32' E 007°01'1111.4
2014-Jul-20 08:33N 43°24' E 006°52'1312.8
2014-Jul-20 07:33N 43°17' E 006°38'1 0.4
2014-Jul-20 06:22N 43°16' E 006°38'0 0.0
2014-Jul-20 05:28N 43°16' E 006°38'0 0.0
2014-Jul-20 04:31N 43°16' E 006°38'0 0.0
2014-Jul-20 03:31N 43°16' E 006°38'0 0.0
2014-Jul-20 02:25N 43°16' E 006°38'0 0.0
2014-Jul-20 01:28N 43°16' E 006°38'0 0.0
2014-Jul-20 00:25N 43°16' E 006°38'0 0.0
2014-Jul-19 23:25N 43°16' E 006°38'0 0.0
2014-Jul-19 22:25N 43°16' E 006°38'0 0.0
2014-Jul-19 21:25N 43°16' E 006°38'0 0.0
2014-Jul-19 20:31N 43°16' E 006°38'0 0.0
2014-Jul-19 19:28N 43°16' E 006°38'0 0.0
2014-Jul-19 18:25N 43°16' E 006°38'0 0.0
2014-Jul-19 17:19N 43°16' E 006°38'0 0.0
2014-Jul-19 16:25N 43°16' E 006°38'4 4.8
2014-Jul-19 15:33N 43°15' E 006°43'3 2.3
2014-Jul-19 14:22N 43°14' E 006°40'0 0.0
2014-Jul-19 13:28N 43°14' E 006°40'0 0.0
2014-Jul-19 12:25N 43°14' E 006°40'0 0.0
2014-Jul-19 11:31N 43°14' E 006°40'0 0.0
2014-Jul-19 10:28N 43°14' E 006°40'0 0.0
2014-Jul-19 09:25N 43°14' E 006°40'0 0.0
2014-Jul-19 08:31N 43°14' E 006°40'0 0.0
2014-Jul-19 07:13N 43°14' E 006°40'0 0.0
2014-Jul-19 06:28N 43°14' E 006°40'0 0.0
2014-Jul-19 05:33N 43°14' E 006°40'1110.7
2014-Jul-19 04:32N 43°06' E 006°51'1111.5
2014-Jul-19 03:33N 42°58' E 007°01'1211.6
2014-Jul-19 02:33N 42°49' E 007°12'1211.9
2014-Jul-19 01:33N 42°40' E 007°23'1212.3
2014-Jul-19 00:33N 42°31' E 007°34'1312.6
2014-Jul-18 23:33N 42°22' E 007°46'1312.9
2014-Jul-18 22:33N 42°13' E 007°58'1313.0
2014-Jul-18 21:33N 42°03' E 008°10'1313.3
2014-Jul-18 20:32N 41°53' E 008°22'1313.2
2014-Jul-18 19:33N 41°43' E 008°33'1312.8
2014-Jul-18 18:32N 41°34' E 008°45'8 0.9
2014-Jul-18 09:25N 41°30' E 008°55'  
2014-Jul-13 20:28N 43°20' E 010°04'1415.6
2014-Jul-13 19:33N 43°33' E 009°56'9 9.2
2014-Jul-13 18:33N 43°41' E 010°03'9 8.1
2014-Jul-13 17:24N 43°40' E 010°16'0 0.0
2014-Jul-13 16:30N 43°40' E 010°16'0 0.0
2014-Jul-13 15:27N 43°40' E 010°16'4 4.3
2014-Jul-13 14:33N 43°43' E 010°11'1515.5
2014-Jul-13 13:34N 43°53' E 009°55'1615.5
2014-Jul-13 12:33N 44°05' E 009°41'1 0.7
2014-Jul-13 11:31N 44°05' E 009°40'0 0.0
2014-Jul-13 10:31N 44°05' E 009°40'0 0.0
2014-Jul-13 09:31N 44°05' E 009°40'2 2.1
2014-Jul-13 08:33N 44°06' E 009°38'1 0.6
2014-Jul-13 07:33N 44°07' E 009°37'  
Track history (hours):
 
Tides and Currents Weather Stations Pressure Air Temp Water Temp Dewpoint Dewpoint Depression Visibility Wind Speed Wind Dir Waves Ship Positions

Laurel

Last reported at 2014-Jul-23 03:31 UTC. Time now 2014-Jul-23 03:48 UTC.
Position N 43°34' E 007°07'.

Length 73 m; draft 3.7 m.

Type: Pleasure craft. MMSI: 319914000.

Date/timePositionNaut miles runAvg speedWind from/ knotsBaromVisibWave heightAir tempDewpointWater temp
2014-Jul-23 03:31N 43°34' E 007°07'0 0.0
2014-Jul-23 02:31N 43°34' E 007°07'0 0.0
2014-Jul-23 01:31N 43°34' E 007°07'0 0.0
2014-Jul-23 00:31N 43°34' E 007°07'0 0.0
2014-Jul-22 23:31N 43°34' E 007°07'0 0.0
2014-Jul-22 22:31N 43°34' E 007°07'0 0.0
2014-Jul-22 21:25N 43°34' E 007°07'0 0.0
2014-Jul-22 20:31N 43°34' E 007°07'0 0.0
2014-Jul-22 19:25N 43°34' E 007°07'0 0.0
2014-Jul-22 18:31N 43°34' E 007°07'0 0.0
2014-Jul-22 17:31N 43°34' E 007°07'0 0.0
2014-Jul-22 16:31N 43°34' E 007°07'0 0.0
2014-Jul-22 15:31N 43°34' E 007°07'0 0.0
2014-Jul-22 14:31N 43°34' E 007°07'0 0.0
2014-Jul-22 13:31N 43°34' E 007°07'0 0.0
2014-Jul-22 12:31N 43°34' E 007°07'0 0.0
2014-Jul-22 11:31N 43°34' E 007°07'0 0.0
2014-Jul-22 10:25N 43°34' E 007°07'0 0.0
2014-Jul-22 09:31N 43°34' E 007°07'0 0.0
2014-Jul-22 08:31N 43°34' E 007°07'4 4.1
2014-Jul-22 07:33N 43°32' E 007°01'0 0.0
2014-Jul-22 05:25N 43°32' E 007°01'0 0.0
2014-Jul-21 22:22N 43°32' E 007°01'0 0.0
2014-Jul-21 21:31N 43°32' E 007°01'0 0.0
2014-Jul-21 20:31N 43°32' E 007°01'0 0.0
2014-Jul-21 20:13N 43°32' E 007°01'0 0.0
2014-Jul-21 19:31N 43°32' E 007°01'0 0.0
2014-Jul-21 18:19N 43°32' E 007°01'0 0.0
2014-Jul-21 17:31N 43°32' E 007°01'0 0.0
2014-Jul-21 15:31N 43°32' E 007°01'0 0.0
2014-Jul-21 14:31N 43°32' E 007°01'0 0.0
2014-Jul-21 13:31N 43°32' E 007°01'0 0.0
2014-Jul-21 12:31N 43°32' E 007°01'0 0.0
2014-Jul-21 11:07N 43°32' E 007°01'0 0.0
2014-Jul-21 10:19N 43°32' E 007°01'0 0.0
2014-Jul-21 09:19N 43°32' E 007°01'0 0.0
2014-Jul-21 04:07N 43°32' E 007°02'0 0.0
2014-Jul-21 02:13N 43°32' E 007°01'0 0.0
2014-Jul-20 22:31N 43°32' E 007°01'0 0.0
2014-Jul-20 21:25N 43°32' E 007°01'0 0.0
2014-Jul-20 20:25N 43°32' E 007°01'0 0.0
2014-Jul-20 19:31N 43°32' E 007°01'0 0.0
2014-Jul-20 18:25N 43°32' E 007°01'0 0.0
2014-Jul-20 17:13N 43°32' E 007°01'0 0.0
2014-Jul-20 15:31N 43°32' E 007°01'0 0.0
2014-Jul-20 14:19N 43°32' E 007°01'0 0.0
2014-Jul-20 12:07N 43°32' E 007°01'0 0.0
2014-Jul-20 09:28N 43°32' E 007°01'1111.4
2014-Jul-20 08:33N 43°24' E 006°52'1312.8
2014-Jul-20 07:33N 43°17' E 006°38'1 0.4
2014-Jul-20 06:22N 43°16' E 006°38'0 0.0
2014-Jul-20 05:28N 43°16' E 006°38'0 0.0
2014-Jul-20 04:31N 43°16' E 006°38'0 0.0
2014-Jul-20 03:31N 43°16' E 006°38'0 0.0
2014-Jul-20 02:25N 43°16' E 006°38'0 0.0
2014-Jul-20 01:28N 43°16' E 006°38'0 0.0
2014-Jul-20 00:25N 43°16' E 006°38'0 0.0
2014-Jul-19 23:25N 43°16' E 006°38'0 0.0
2014-Jul-19 22:25N 43°16' E 006°38'0 0.0
2014-Jul-19 21:25N 43°16' E 006°38'0 0.0
2014-Jul-19 20:31N 43°16' E 006°38'0 0.0
2014-Jul-19 19:28N 43°16' E 006°38'0 0.0
2014-Jul-19 18:25N 43°16' E 006°38'0 0.0
2014-Jul-19 17:19N 43°16' E 006°38'0 0.0
2014-Jul-19 16:25N 43°16' E 006°38'4 4.8
2014-Jul-19 15:33N 43°15' E 006°43'3 2.3
2014-Jul-19 14:22N 43°14' E 006°40'0 0.0
2014-Jul-19 13:28N 43°14' E 006°40'0 0.0
2014-Jul-19 12:25N 43°14' E 006°40'0 0.0
2014-Jul-19 11:31N 43°14' E 006°40'0 0.0
2014-Jul-19 10:28N 43°14' E 006°40'0 0.0
2014-Jul-19 09:25N 43°14' E 006°40'0 0.0
2014-Jul-19 08:31N 43°14' E 006°40'0 0.0
2014-Jul-19 07:13N 43°14' E 006°40'0 0.0
2014-Jul-19 06:28N 43°14' E 006°40'0 0.0
2014-Jul-19 05:33N 43°14' E 006°40'1110.7
2014-Jul-19 04:32N 43°06' E 006°51'1111.5
2014-Jul-19 03:33N 42°58' E 007°01'1211.6
2014-Jul-19 02:33N 42°49' E 007°12'1211.9
2014-Jul-19 01:33N 42°40' E 007°23'1212.3
2014-Jul-19 00:33N 42°31' E 007°34'1312.6
2014-Jul-18 23:33N 42°22' E 007°46'1312.9
2014-Jul-18 22:33N 42°13' E 007°58'1313.0
2014-Jul-18 21:33N 42°03' E 008°10'1313.3
2014-Jul-18 20:32N 41°53' E 008°22'1313.2
2014-Jul-18 19:33N 41°43' E 008°33'1312.8
2014-Jul-18 18:32N 41°34' E 008°45'8 0.9
2014-Jul-18 09:25N 41°30' E 008°55'  
2014-Jul-13 20:28N 43°20' E 010°04'1415.6
2014-Jul-13 19:33N 43°33' E 009°56'9 9.2
2014-Jul-13 18:33N 43°41' E 010°03'9 8.1
2014-Jul-13 17:24N 43°40' E 010°16'0 0.0
2014-Jul-13 16:30N 43°40' E 010°16'0 0.0
2014-Jul-13 15:27N 43°40' E 010°16'4 4.3
2014-Jul-13 14:33N 43°43' E 010°11'1515.5
2014-Jul-13 13:34N 43°53' E 009°55'1615.5
2014-Jul-13 12:33N 44°05' E 009°41'1 0.7
2014-Jul-13 11:31N 44°05' E 009°40'0 0.0
2014-Jul-13 10:31N 44°05' E 009°40'0 0.0
2014-Jul-13 09:31N 44°05' E 009°40'2 2.1
2014-Jul-13 08:33N 44°06' E 009°38'1 0.6
2014-Jul-13 07:33N 44°07' E 009°37'  

Dump ship's entire track history